Race Coverage Navigation

TS # 48 / Cumberland, MD  2019

 


TS STATS
TS Distance 49 
Total Distance 2824.64 
Miles To Go 217.13 
TS Climbing 2803 
Total Climbing
TS  Elevation
TS  Net Elevation 4461 
Map Filename Open Map 
Directions Filename  
Latitude 39.68 
Longitude -78.74 
Google Map  TimeStation Map 


TS Arrival Data
Arr Ord  #/Name Arrival DT TS Dst Avg This TS Avg Overall
 1 377 - Christoph Strasser  06/19/2019 8:52 49  13.8  15.33 
 2 279 - Marko Baloh  06/20/2019 15:23 49  14.27  13.15 
 3 609 - Jakob Olsen  06/20/2019 18:14 49  12.62  12.96 
 4 T411 - team alpha - tischlerei groemmer  06/20/2019 20:28 49  22.79  22.58 
 5 T800 - Backstedt Racing Project 14  06/20/2019 21:12 49  23.71  22.47 
 6 T800 - Backstedt Racing Project 14  06/20/2019 21:12 49  23.71  22.47 
 7 T404 - Gentlemen of speed  06/21/2019 5:42 49  17.4  21.01 
 8 T805 - Team Oceanside  06/21/2019 10:31 49  18.85  20.33 
 9 T401 - Data Techniques powered by Networks Centre  06/21/2019 10:33 49  14.77  20.27 
 10 T807 - Team ZOE International  06/21/2019 10:58 49  18.61  20.27 
 11 T407 - Julian Becker   06/21/2019 12:51 49  18.49  19.95 
 12 617 - SOLO.kiwi (Craig Harper)  06/21/2019 13:26 49  8.17  11.91 
 13 T201 - EAT WELL  06/21/2019 13:32 49  19.73  19.82 
 14 367 - Daniela Genovesi  06/21/2019 14:24 49  9.27  11.85 
 15 416 - Leah Goldstein  06/21/2019 15:28 49  12.95  11.8 
 16 T802 - Scorchers  06/21/2019 16:00 49  11.35  19.55 
 17 329 - Peter Oyler  06/21/2019 16:49 49  11.05  11.76 
 18 T804 - Team FSHD Skyland Trail  06/21/2019 17:01 49  15.15  19.42 
 19 T416 - Team Rotary Raams Polio  06/21/2019 17:30 49  18.97  19.34 
 20 623 - Ultra Paka Racing Team (Daniel Polman)  06/21/2019 17:48 49  12.25  11.69 
 21 T408 - Radeln-fuer-Kinder (Cycling-for-Kids)  06/21/2019 18:29 49  17.19  19.19 
 22 622 - Thomas Odom-Team Kyle Pease Foundation  06/21/2019 19:11 49  9.97  11.62 
 23 T808 - Antonia's Friends 2019  06/21/2019 21:04 49  16.52  18.9 
 24 T400 - Cantastic4  06/21/2019 21:31 49  17.5  18.79 
 25 615 - Philipp Amhof  06/21/2019 22:47 49  13.01  11.46 
 26 T406 - Operation Walk Midwest  06/22/2019 0:13 49  16.61  18.47 
 27 T418 - The Opportunists  06/22/2019 1:56 49  17.5  18.29 
 28 611 - Marcelo Soares " MIXIRICA "  06/22/2019 2:05 49  6.18  11.31 
 29 603 - Alan Bradley  06/22/2019 4:43 49  9.3  11.19 
 30 529 - Isa Pulver  06/22/2019 7:23 49  7.15  11.06 
 31 T410 - Soap-Aid  06/22/2019 8:24 49  15.47  17.54 
 32 612 - Markus K. Brandl  06/22/2019 9:36 49  4.8  10.98 
 33 442 - Joe Barr  06/22/2019 10:04 49  13.36  10.97 
 34 510 - John C. Tarlton  06/22/2019 11:39 49  9.27  10.9 
 35 411 - Geoff Brunner  06/22/2019 12:02 49  14.27  10.89 
 36 T412 - Team Aspect  06/22/2019 12:30 49  15.08  17.11 
 37 T803 - Team EndoPark  06/22/2019 12:34 49  16.15  17.12 
 38 603 - Alan Bradley  06/22/2019 12:43 49  9.3  11.19 
 39 T414 - Brazil Nuts  06/22/2019 12:46 49  19.22  17.08 
 40 559 - Team Martin RAAM 2019 (Martin Bergmeister)  06/22/2019 13:37 49  12.05  10.81 
 41 T202 - Integra Medical - BAA Racing  06/22/2019 15:49 49  16.7  16.74 
 42 T415 - TEAM FIRE VELO 935  06/22/2019 16:11 49  16.42  16.74 
 43 T405 - High Rollers  06/22/2019 16:15 49  15.23  16.71 
 44 618 - GREGORY ROBINSON  06/22/2019 18:11 49  12.95  10.62 
 45 610 - Kabir Rachure  06/22/2019 18:15 49  11.14  10.62 
 46 T413 - TEAM BRASIL - SKIPPER  06/22/2019 19:21 49  14.7  16.43 
 47 T200 - AIR RELAX GoPro TEAM BRASIL  06/22/2019 19:40 49  17.71  16.36 
 48 T204 - Lucan CRC  06/22/2019 19:42 49  13.67  16.36 
 49 T206 - Project Linear Acceleration  06/22/2019 20:36 49  14.55  16.28 
 50 568 - Alexandra Meixner  06/22/2019 21:05 49  10.81  10.5 
 51 T402 - EA/WFP RAAM Team  06/22/2019 21:07 49  16.07  16.24 
 52 T801 - Mind Over Matter  06/23/2019 0:35 49  14.2  15.95 
 53 T806 - Team SuperMarrow  06/23/2019 2:03 49  11.81  15.83 
 54 T417 - Team4RAAM 2019 powered by TGW Living Logistics  06/23/2019 2:33 49  11.4  15.77 
 55 T403 - EKJ Denmark  06/23/2019 5:48 49  13.87  15.47 
 56 604 - Chieko Ozawa  06/23/2019 6:49 49  5.08  10.13 
 57 399 - Valerio Zamboni  06/23/2019 8:37 49  7.64  10.09 
 58 424 - Team i RON man Veterans supporting Veterans  06/23/2019 10:50 49  9.3  10.01 
 59 161 - Seana Hogan  06/23/2019 23:32 49  11.62  9.56 
 60 T207 - Team Life Time  06/24/2019 1:48 49  11.44  13.94 
 61 T210 - Bike Wine Team  06/24/2019 5:02 49  12.05  13.72